Taisho Maru — JI3307 — position and weather

sailwx.info

Track history (hours):
 
Tides and Currents Weather Stations Pressure Air Temp Water Temp Dewpoint Dewpoint Depression Visibility Wind Speed Wind Dir Waves Ship Positions

Taisho Maru

Last reported at 2014-Nov-23 12:12 UTC. Time now 2014-Nov-26 15:09 UTC.
Position N 34°04' E 135°01'.

Length 93 m; draft 7.3 m.

Type: Cargo ship. MMSI: 431300084.

Date/timePositionNaut miles runAvg speedWind from/ knotsBaromVisibWave heightAir tempDewpointWater temp
2014-Nov-23 12:12N 34°04' E 135°01'812.6
2014-Nov-23 11:33N 34°11' E 135°04'4 3.9
2014-Nov-23 10:34N 34°14' E 135°08'0 0.1
2014-Nov-23 09:33N 34°14' E 135°08'0 0.0
2014-Nov-23 08:33N 34°14' E 135°08'0 0.0
2014-Nov-23 07:33N 34°14' E 135°08'0 0.0
2014-Nov-23 06:33N 34°14' E 135°08'0 0.0
2014-Nov-23 05:33N 34°14' E 135°08'0 0.0
2014-Nov-23 04:33N 34°14' E 135°08'0 0.0
2014-Nov-23 03:33N 34°14' E 135°08'0 0.0
2014-Nov-23 02:33N 34°14' E 135°08'7 6.5
2014-Nov-23 01:33N 34°09' E 135°02'24010.4
2014-Nov-22 02:31N 33°51' E 130°13'1414.8
2014-Nov-22 01:33N 33°43' E 129°59'9 0.4
2014-Nov-21 02:21N 33°37' E 129°50'1011.9
2014-Nov-21 01:33N 33°44' E 129°59'1212.1
2014-Nov-21 00:34N 33°51' E 130°11'  
2014-Nov-18 01:33N 34°37' E 134°55'10 9.9
2014-Nov-18 00:33N 34°31' E 135°04'1413.8
2014-Nov-17 23:33N 34°18' E 134°60'1413.8
2014-Nov-17 22:33N 34°04' E 135°00'  
Track history (hours):
 
Tides and Currents Weather Stations Pressure Air Temp Water Temp Dewpoint Dewpoint Depression Visibility Wind Speed Wind Dir Waves Ship Positions

Taisho Maru

Last reported at 2014-Nov-23 12:12 UTC. Time now 2014-Nov-26 15:09 UTC.
Position N 34°04' E 135°01'.

Length 93 m; draft 7.3 m.

Type: Cargo ship. MMSI: 431300084.

Date/timePositionNaut miles runAvg speedWind from/ knotsBaromVisibWave heightAir tempDewpointWater temp
2014-Nov-23 12:12N 34°04' E 135°01'812.6
2014-Nov-23 11:33N 34°11' E 135°04'4 3.9
2014-Nov-23 10:34N 34°14' E 135°08'0 0.1
2014-Nov-23 09:33N 34°14' E 135°08'0 0.0
2014-Nov-23 08:33N 34°14' E 135°08'0 0.0
2014-Nov-23 07:33N 34°14' E 135°08'0 0.0
2014-Nov-23 06:33N 34°14' E 135°08'0 0.0
2014-Nov-23 05:33N 34°14' E 135°08'0 0.0
2014-Nov-23 04:33N 34°14' E 135°08'0 0.0
2014-Nov-23 03:33N 34°14' E 135°08'0 0.0
2014-Nov-23 02:33N 34°14' E 135°08'7 6.5
2014-Nov-23 01:33N 34°09' E 135°02'24010.4
2014-Nov-22 02:31N 33°51' E 130°13'1414.8
2014-Nov-22 01:33N 33°43' E 129°59'9 0.4
2014-Nov-21 02:21N 33°37' E 129°50'1011.9
2014-Nov-21 01:33N 33°44' E 129°59'1212.1
2014-Nov-21 00:34N 33°51' E 130°11'  
2014-Nov-18 01:33N 34°37' E 134°55'10 9.9
2014-Nov-18 00:33N 34°31' E 135°04'1413.8
2014-Nov-17 23:33N 34°18' E 134°60'1413.8
2014-Nov-17 22:33N 34°04' E 135°00'  

Dump ship's entire track history